sensor_id;sensor_type;location;lat;lon;timestamp;temperature;humidity
851;DHT22;412;51.400;7.480;2022-11-11T00:00:45;13.20;99.90
851;DHT22;412;51.400;7.480;2022-11-11T00:03:11;13.20;99.90
851;DHT22;412;51.400;7.480;2022-11-11T00:05:36;13.20;99.90
851;DHT22;412;51.400;7.480;2022-11-11T00:08:02;13.20;99.90
851;DHT22;412;51.400;7.480;2022-11-11T00:10:29;13.20;99.90
851;DHT22;412;51.400;7.480;2022-11-11T00:12:59;13.30;99.90
851;DHT22;412;51.400;7.480;2022-11-11T00:15:25;13.20;99.90
851;DHT22;412;51.400;7.480;2022-11-11T00:17:51;13.30;99.90
851;DHT22;412;51.400;7.480;2022-11-11T00:20:35;13.30;99.90
851;DHT22;412;51.400;7.480;2022-11-11T00:23:21;13.30;99.90
851;DHT22;412;51.400;7.480;2022-11-11T00:26:06;13.30;99.90
851;DHT22;412;51.400;7.480;2022-11-11T00:28:32;13.30;99.90
851;DHT22;412;51.400;7.480;2022-11-11T00:31:06;13.30;99.90
851;DHT22;412;51.400;7.480;2022-11-11T00:33:32;13.30;99.90
851;DHT22;412;51.400;7.480;2022-11-11T00:35:58;13.30;99.90
851;DHT22;412;51.400;7.480;2022-11-11T00:38:24;13.30;99.90
851;DHT22;412;51.400;7.480;2022-11-11T00:41:09;13.30;99.90
851;DHT22;412;51.400;7.480;2022-11-11T00:43:35;13.30;99.90
851;DHT22;412;51.400;7.480;2022-11-11T00:46:01;13.20;99.90
851;DHT22;412;51.400;7.480;2022-11-11T00:48:45;13.20;99.90
851;DHT22;412;51.400;7.480;2022-11-11T00:51:29;13.20;99.90
851;DHT22;412;51.400;7.480;2022-11-11T00:53:55;13.10;99.90
851;DHT22;412;51.400;7.480;2022-11-11T00:56:22;13.10;99.90
851;DHT22;412;51.400;7.480;2022-11-11T00:58:47;13.20;99.90
851;DHT22;412;51.400;7.480;2022-11-11T01:01:13;13.20;99.90
851;DHT22;412;51.400;7.480;2022-11-11T01:03:39;13.30;99.90
851;DHT22;412;51.400;7.480;2022-11-11T01:06:05;13.30;99.90
851;DHT22;412;51.400;7.480;2022-11-11T01:08:31;13.30;99.90
851;DHT22;412;51.400;7.480;2022-11-11T01:10:58;13.30;99.90
851;DHT22;412;51.400;7.480;2022-11-11T01:13:27;13.30;99.90
851;DHT22;412;51.400;7.480;2022-11-11T01:15:58;13.20;99.90
851;DHT22;412;51.400;7.480;2022-11-11T01:18:25;13.20;99.90
851;DHT22;412;51.400;7.480;2022-11-11T01:23:32;13.20;99.90
851;DHT22;412;51.400;7.480;2022-11-11T01:26:28;13.30;99.90
851;DHT22;412;51.400;7.480;2022-11-11T01:28:54;13.30;99.90
851;DHT22;412;51.400;7.480;2022-11-11T01:31:22;13.40;99.90
851;DHT22;412;51.400;7.480;2022-11-11T01:33:48;13.30;99.90
851;DHT22;412;51.400;7.480;2022-11-11T01:36:20;13.30;99.90
851;DHT22;412;51.400;7.480;2022-11-11T01:38:53;13.30;99.90
851;DHT22;412;51.400;7.480;2022-11-11T01:41:23;13.30;99.90
851;DHT22;412;51.400;7.480;2022-11-11T01:52:01;13.20;99.90
851;DHT22;412;51.400;7.480;2022-11-11T01:54:52;13.20;99.90
851;DHT22;412;51.400;7.480;2022-11-11T02:00:06;13.10;99.90
851;DHT22;412;51.400;7.480;2022-11-11T02:02:46;13.10;99.90
851;DHT22;412;51.400;7.480;2022-11-11T02:05:16;13.10;99.90
851;DHT22;412;51.400;7.480;2022-11-11T02:08:04;13.10;99.90
851;DHT22;412;51.400;7.480;2022-11-11T02:10:33;13.10;99.90
851;DHT22;412;51.400;7.480;2022-11-11T02:13:00;13.10;99.90
851;DHT22;412;51.400;7.480;2022-11-11T02:15:45;13.10;99.90
851;DHT22;412;51.400;7.480;2022-11-11T02:18:13;13.10;99.90
851;DHT22;412;51.400;7.480;2022-11-11T02:20:42;13.10;99.90
851;DHT22;412;51.400;7.480;2022-11-11T02:25:43;13.20;99.90
851;DHT22;412;51.400;7.480;2022-11-11T02:28:10;13.20;99.90
851;DHT22;412;51.400;7.480;2022-11-11T02:30:38;13.10;99.90
851;DHT22;412;51.400;7.480;2022-11-11T02:33:04;13.10;99.90
851;DHT22;412;51.400;7.480;2022-11-11T02:35:36;13.10;99.90
851;DHT22;412;51.400;7.480;2022-11-11T02:38:04;13.20;99.90
851;DHT22;412;51.400;7.480;2022-11-11T02:40:38;13.20;99.90
851;DHT22;412;51.400;7.480;2022-11-11T02:43:24;13.10;99.90
851;DHT22;412;51.400;7.480;2022-11-11T02:45:50;13.20;99.90
851;DHT22;412;51.400;7.480;2022-11-11T02:48:15;13.20;99.90
851;DHT22;412;51.400;7.480;2022-11-11T02:50:42;13.20;99.90
851;DHT22;412;51.400;7.480;2022-11-11T02:53:07;13.20;99.90
851;DHT22;412;51.400;7.480;2022-11-11T02:55:33;13.10;99.90
851;DHT22;412;51.400;7.480;2022-11-11T02:57:59;13.10;99.90
851;DHT22;412;51.400;7.480;2022-11-11T03:00:25;13.10;99.70
851;DHT22;412;51.400;7.480;2022-11-11T03:02:51;13.00;99.90
851;DHT22;412;51.400;7.480;2022-11-11T03:05:17;13.00;99.90
851;DHT22;412;51.400;7.480;2022-11-11T03:07:43;13.00;99.90
851;DHT22;412;51.400;7.480;2022-11-11T03:10:08;13.00;99.90
851;DHT22;412;51.400;7.480;2022-11-11T03:12:34;12.90;99.90
851;DHT22;412;51.400;7.480;2022-11-11T03:15:00;12.90;99.90
851;DHT22;412;51.400;7.480;2022-11-11T03:17:26;12.80;99.90
851;DHT22;412;51.400;7.480;2022-11-11T03:20:17;12.80;99.90
851;DHT22;412;51.400;7.480;2022-11-11T03:23:09;12.70;99.90
851;DHT22;412;51.400;7.480;2022-11-11T03:25:44;12.60;99.90
851;DHT22;412;51.400;7.480;2022-11-11T03:28:12;12.60;99.90
851;DHT22;412;51.400;7.480;2022-11-11T03:30:40;12.50;99.90
851;DHT22;412;51.400;7.480;2022-11-11T03:33:06;12.60;99.90
851;DHT22;412;51.400;7.480;2022-11-11T03:35:35;12.60;99.90
851;DHT22;412;51.400;7.480;2022-11-11T03:38:01;12.60;99.90
851;DHT22;412;51.400;7.480;2022-11-11T03:40:47;12.60;99.90
851;DHT22;412;51.400;7.480;2022-11-11T03:43:14;12.60;99.90
851;DHT22;412;51.400;7.480;2022-11-11T03:45:40;12.60;99.90
851;DHT22;412;51.400;7.480;2022-11-11T03:48:06;12.60;99.90
851;DHT22;412;51.400;7.480;2022-11-11T03:50:32;12.60;99.90
851;DHT22;412;51.400;7.480;2022-11-11T03:52:58;12.60;99.90
851;DHT22;412;51.400;7.480;2022-11-11T03:55:24;12.60;99.90
851;DHT22;412;51.400;7.480;2022-11-11T03:57:50;12.60;99.90
851;DHT22;412;51.400;7.480;2022-11-11T04:00:18;12.60;99.90
851;DHT22;412;51.400;7.480;2022-11-11T04:02:45;12.50;99.90
851;DHT22;412;51.400;7.480;2022-11-11T04:05:29;12.60;99.90
851;DHT22;412;51.400;7.480;2022-11-11T04:08:16;12.50;99.90
851;DHT22;412;51.400;7.480;2022-11-11T04:11:14;12.60;99.90
851;DHT22;412;51.400;7.480;2022-11-11T04:13:43;12.60;99.90
851;DHT22;412;51.400;7.480;2022-11-11T04:16:28;12.60;99.90
851;DHT22;412;51.400;7.480;2022-11-11T04:18:54;12.50;99.90
851;DHT22;412;51.400;7.480;2022-11-11T04:21:38;12.60;99.90
851;DHT22;412;51.400;7.480;2022-11-11T04:24:13;12.60;99.90
851;DHT22;412;51.400;7.480;2022-11-11T04:27:00;12.70;99.90
851;DHT22;412;51.400;7.480;2022-11-11T04:29:26;12.70;99.90
851;DHT22;412;51.400;7.480;2022-11-11T04:32:04;12.70;99.90
851;DHT22;412;51.400;7.480;2022-11-11T04:34:56;12.70;99.90
851;DHT22;412;51.400;7.480;2022-11-11T04:37:23;12.80;99.90
851;DHT22;412;51.400;7.480;2022-11-11T04:39:50;12.80;99.90
851;DHT22;412;51.400;7.480;2022-11-11T04:42:34;12.80;99.90
851;DHT22;412;51.400;7.480;2022-11-11T04:45:01;12.80;99.90
851;DHT22;412;51.400;7.480;2022-11-11T04:50:18;12.80;99.90
851;DHT22;412;51.400;7.480;2022-11-11T04:52:43;12.90;99.90
851;DHT22;412;51.400;7.480;2022-11-11T04:55:09;12.90;99.90
851;DHT22;412;51.400;7.480;2022-11-11T04:57:53;12.90;99.90
851;DHT22;412;51.400;7.480;2022-11-11T05:00:19;12.90;99.90
851;DHT22;412;51.400;7.480;2022-11-11T05:02:45;12.90;99.90
851;DHT22;412;51.400;7.480;2022-11-11T05:05:30;12.90;99.90
851;DHT22;412;51.400;7.480;2022-11-11T05:08:18;13.00;99.90
851;DHT22;412;51.400;7.480;2022-11-11T05:11:03;12.90;99.90
851;DHT22;412;51.400;7.480;2022-11-11T05:13:29;12.90;99.90
851;DHT22;412;51.400;7.480;2022-11-11T05:16:19;12.80;99.90
851;DHT22;412;51.400;7.480;2022-11-11T05:19:12;12.70;99.90
851;DHT22;412;51.400;7.480;2022-11-11T05:22:24;12.80;99.90
851;DHT22;412;51.400;7.480;2022-11-11T05:24:48;12.70;99.90
851;DHT22;412;51.400;7.480;2022-11-11T05:27:33;12.70;99.90
851;DHT22;412;51.400;7.480;2022-11-11T05:29:58;12.80;99.90
851;DHT22;412;51.400;7.480;2022-11-11T05:32:25;12.80;99.90
851;DHT22;412;51.400;7.480;2022-11-11T05:34:51;12.70;99.90
851;DHT22;412;51.400;7.480;2022-11-11T05:37:16;12.70;99.90
851;DHT22;412;51.400;7.480;2022-11-11T05:39:42;12.80;99.90
851;DHT22;412;51.400;7.480;2022-11-11T05:42:08;12.80;99.90
851;DHT22;412;51.400;7.480;2022-11-11T05:44:34;12.80;99.90
851;DHT22;412;51.400;7.480;2022-11-11T05:47:00;12.80;99.80
851;DHT22;412;51.400;7.480;2022-11-11T05:49:26;12.90;99.80
851;DHT22;412;51.400;7.480;2022-11-11T05:51:53;12.90;99.70
851;DHT22;412;51.400;7.480;2022-11-11T05:54:21;12.90;99.50
851;DHT22;412;51.400;7.480;2022-11-11T05:56:48;12.90;99.60
851;DHT22;412;51.400;7.480;2022-11-11T05:59:13;12.90;99.50
851;DHT22;412;51.400;7.480;2022-11-11T06:01:40;12.90;99.40
851;DHT22;412;51.400;7.480;2022-11-11T06:04:05;13.00;99.20
851;DHT22;412;51.400;7.480;2022-11-11T06:06:32;12.90;99.20
851;DHT22;412;51.400;7.480;2022-11-11T06:08:58;12.90;99.10
851;DHT22;412;51.400;7.480;2022-11-11T06:11:24;12.80;99.10
851;DHT22;412;51.400;7.480;2022-11-11T06:13:52;12.90;99.20
851;DHT22;412;51.400;7.480;2022-11-11T06:16:18;12.80;99.30
851;DHT22;412;51.400;7.480;2022-11-11T06:18:44;12.80;99.30
851;DHT22;412;51.400;7.480;2022-11-11T06:21:10;12.90;99.30
851;DHT22;412;51.400;7.480;2022-11-11T06:23:36;12.90;99.30
851;DHT22;412;51.400;7.480;2022-11-11T06:26:01;12.90;99.40
851;DHT22;412;51.400;7.480;2022-11-11T06:31:19;12.90;99.20
851;DHT22;412;51.400;7.480;2022-11-11T06:33:46;12.90;99.20
851;DHT22;412;51.400;7.480;2022-11-11T06:36:13;12.90;99.10
851;DHT22;412;51.400;7.480;2022-11-11T06:38:40;13.00;99.00
851;DHT22;412;51.400;7.480;2022-11-11T06:41:06;12.90;99.00
851;DHT22;412;51.400;7.480;2022-11-11T06:43:32;12.90;99.10
851;DHT22;412;51.400;7.480;2022-11-11T06:45:58;12.90;99.10
851;DHT22;412;51.400;7.480;2022-11-11T06:48:26;12.90;99.00
851;DHT22;412;51.400;7.480;2022-11-11T06:50:52;12.90;98.90
851;DHT22;412;51.400;7.480;2022-11-11T06:53:19;12.80;98.80
851;DHT22;412;51.400;7.480;2022-11-11T06:55:45;12.70;99.10
851;DHT22;412;51.400;7.480;2022-11-11T06:58:13;12.70;99.20
851;DHT22;412;51.400;7.480;2022-11-11T07:00:39;12.70;99.50
851;DHT22;412;51.400;7.480;2022-11-11T07:03:07;12.60;99.60
851;DHT22;412;51.400;7.480;2022-11-11T07:05:34;12.50;99.80
851;DHT22;412;51.400;7.480;2022-11-11T07:08:04;12.50;99.80
851;DHT22;412;51.400;7.480;2022-11-11T07:10:32;12.40;99.90
851;DHT22;412;51.400;7.480;2022-11-11T07:12:58;12.40;99.90
851;DHT22;412;51.400;7.480;2022-11-11T07:15:24;12.30;99.90
851;DHT22;412;51.400;7.480;2022-11-11T07:17:50;12.30;99.90
851;DHT22;412;51.400;7.480;2022-11-11T07:20:16;12.40;99.90
851;DHT22;412;51.400;7.480;2022-11-11T07:22:41;12.20;99.90
851;DHT22;412;51.400;7.480;2022-11-11T07:25:07;12.20;99.90
851;DHT22;412;51.400;7.480;2022-11-11T07:27:37;12.20;99.90
851;DHT22;412;51.400;7.480;2022-11-11T07:30:04;12.20;99.90
851;DHT22;412;51.400;7.480;2022-11-11T07:32:30;12.20;99.90
851;DHT22;412;51.400;7.480;2022-11-11T07:34:56;12.20;99.90
851;DHT22;412;51.400;7.480;2022-11-11T07:37:22;12.20;99.90
851;DHT22;412;51.400;7.480;2022-11-11T07:39:47;12.20;99.90
851;DHT22;412;51.400;7.480;2022-11-11T07:42:13;12.20;99.90
851;DHT22;412;51.400;7.480;2022-11-11T07:44:40;12.20;99.90
851;DHT22;412;51.400;7.480;2022-11-11T07:47:05;12.30;99.90
851;DHT22;412;51.400;7.480;2022-11-11T07:49:31;12.30;99.90
851;DHT22;412;51.400;7.480;2022-11-11T07:51:57;12.30;99.90
851;DHT22;412;51.400;7.480;2022-11-11T07:54:23;12.10;99.90
851;DHT22;412;51.400;7.480;2022-11-11T07:56:48;11.90;99.90
851;DHT22;412;51.400;7.480;2022-11-11T07:59:14;12.10;99.90
851;DHT22;412;51.400;7.480;2022-11-11T08:01:40;12.20;99.90
851;DHT22;412;51.400;7.480;2022-11-11T08:04:06;12.40;99.90
851;DHT22;412;51.400;7.480;2022-11-11T08:06:31;12.40;99.90
851;DHT22;412;51.400;7.480;2022-11-11T08:08:57;12.50;99.90
851;DHT22;412;51.400;7.480;2022-11-11T08:11:23;12.60;99.90
851;DHT22;412;51.400;7.480;2022-11-11T08:14:07;12.60;99.90
851;DHT22;412;51.400;7.480;2022-11-11T08:16:33;12.50;99.90
851;DHT22;412;51.400;7.480;2022-11-11T08:18:59;12.50;99.90
851;DHT22;412;51.400;7.480;2022-11-11T08:21:26;12.60;99.90
851;DHT22;412;51.400;7.480;2022-11-11T08:23:52;12.80;99.90
851;DHT22;412;51.400;7.480;2022-11-11T08:26:19;12.70;99.90
851;DHT22;412;51.400;7.480;2022-11-11T08:28:46;12.60;99.90
851;DHT22;412;51.400;7.480;2022-11-11T08:31:12;12.80;99.90
851;DHT22;412;51.400;7.480;2022-11-11T08:33:38;12.90;99.90
851;DHT22;412;51.400;7.480;2022-11-11T08:36:05;13.00;99.90
851;DHT22;412;51.400;7.480;2022-11-11T08:38:33;13.10;99.90
851;DHT22;412;51.400;7.480;2022-11-11T08:41:00;13.00;99.80
851;DHT22;412;51.400;7.480;2022-11-11T08:43:27;13.10;99.10
851;DHT22;412;51.400;7.480;2022-11-11T08:45:57;13.20;99.80
851;DHT22;412;51.400;7.480;2022-11-11T08:48:23;13.30;99.10
851;DHT22;412;51.400;7.480;2022-11-11T08:50:51;13.40;99.20
851;DHT22;412;51.400;7.480;2022-11-11T08:53:18;13.80;98.60
851;DHT22;412;51.400;7.480;2022-11-11T08:55:45;14.00;97.70
851;DHT22;412;51.400;7.480;2022-11-11T08:58:12;14.30;97.00
851;DHT22;412;51.400;7.480;2022-11-11T09:00:38;14.60;95.90
851;DHT22;412;51.400;7.480;2022-11-11T09:03:06;14.90;95.30
851;DHT22;412;51.400;7.480;2022-11-11T09:05:32;15.20;94.80
851;DHT22;412;51.400;7.480;2022-11-11T09:08:02;15.60;93.20
851;DHT22;412;51.400;7.480;2022-11-11T09:10:31;15.70;93.00
851;DHT22;412;51.400;7.480;2022-11-11T09:12:58;16.00;92.50
851;DHT22;412;51.400;7.480;2022-11-11T09:15:24;16.20;91.40
851;DHT22;412;51.400;7.480;2022-11-11T09:17:51;16.30;91.10
851;DHT22;412;51.400;7.480;2022-11-11T09:20:17;16.40;90.60
851;DHT22;412;51.400;7.480;2022-11-11T09:22:44;16.50;90.10
851;DHT22;412;51.400;7.480;2022-11-11T09:25:11;16.70;90.70
851;DHT22;412;51.400;7.480;2022-11-11T09:27:37;16.80;90.00
851;DHT22;412;51.400;7.480;2022-11-11T09:30:03;16.90;88.60
851;DHT22;412;51.400;7.480;2022-11-11T09:32:29;17.00;89.40
851;DHT22;412;51.400;7.480;2022-11-11T09:34:55;17.20;88.00
851;DHT22;412;51.400;7.480;2022-11-11T09:37:21;17.30;87.60
851;DHT22;412;51.400;7.480;2022-11-11T09:39:47;17.40;85.90
851;DHT22;412;51.400;7.480;2022-11-11T09:47:59;17.60;84.20
851;DHT22;412;51.400;7.480;2022-11-11T09:50:28;17.70;84.40
851;DHT22;412;51.400;7.480;2022-11-11T09:52:56;17.90;82.90
851;DHT22;412;51.400;7.480;2022-11-11T09:55:31;18.10;82.40
851;DHT22;412;51.400;7.480;2022-11-11T09:58:19;18.20;80.70
851;DHT22;412;51.400;7.480;2022-11-11T10:00:49;18.50;80.80
851;DHT22;412;51.400;7.480;2022-11-11T10:03:21;18.50;79.00
851;DHT22;412;51.400;7.480;2022-11-11T10:08:24;18.70;78.70
851;DHT22;412;51.400;7.480;2022-11-11T10:10:52;19.00;77.70
851;DHT22;412;51.400;7.480;2022-11-11T10:13:32;19.30;76.10
851;DHT22;412;51.400;7.480;2022-11-11T10:21:22;19.80;73.60
851;DHT22;412;51.400;7.480;2022-11-11T10:23:54;20.00;71.70
851;DHT22;412;51.400;7.480;2022-11-11T10:26:43;20.10;73.30
851;DHT22;412;51.400;7.480;2022-11-11T10:29:17;20.00;68.80
851;DHT22;412;51.400;7.480;2022-11-11T10:31:48;20.10;70.40
851;DHT22;412;51.400;7.480;2022-11-11T10:34:18;20.20;70.40
851;DHT22;412;51.400;7.480;2022-11-11T10:36:48;20.30;68.90
851;DHT22;412;51.400;7.480;2022-11-11T10:39:22;20.40;69.50
851;DHT22;412;51.400;7.480;2022-11-11T10:41:50;20.50;69.20
851;DHT22;412;51.400;7.480;2022-11-11T10:47:02;20.60;67.90
851;DHT22;412;51.400;7.480;2022-11-11T10:49:33;20.60;67.80
851;DHT22;412;51.400;7.480;2022-11-11T10:52:05;20.70;68.00
851;DHT22;412;51.400;7.480;2022-11-11T10:54:44;20.60;68.70
851;DHT22;412;51.400;7.480;2022-11-11T10:57:22;20.50;66.00
851;DHT22;412;51.400;7.480;2022-11-11T11:02:32;20.60;66.10
851;DHT22;412;51.400;7.480;2022-11-11T11:05:09;20.60;65.00
851;DHT22;412;51.400;7.480;2022-11-11T11:07:42;20.70;64.70
851;DHT22;412;51.400;7.480;2022-11-11T11:10:36;20.80;63.40
851;DHT22;412;51.400;7.480;2022-11-11T11:13:06;20.80;63.60
851;DHT22;412;51.400;7.480;2022-11-11T11:15:38;20.80;64.40
851;DHT22;412;51.400;7.480;2022-11-11T11:18:12;20.90;64.10
851;DHT22;412;51.400;7.480;2022-11-11T11:20:38;20.90;63.50
851;DHT22;412;51.400;7.480;2022-11-11T11:23:35;21.00;63.30
851;DHT22;412;51.400;7.480;2022-11-11T11:26:00;21.00;63.20
851;DHT22;412;51.400;7.480;2022-11-11T11:28:28;21.10;63.80
851;DHT22;412;51.400;7.480;2022-11-11T11:31:03;21.20;63.40
851;DHT22;412;51.400;7.480;2022-11-11T11:36:15;21.20;62.70
851;DHT22;412;51.400;7.480;2022-11-11T11:38:47;21.20;64.20
851;DHT22;412;51.400;7.480;2022-11-11T11:44:01;20.90;63.20
851;DHT22;412;51.400;7.480;2022-11-11T11:51:38;20.70;62.30
851;DHT22;412;51.400;7.480;2022-11-11T11:57:51;20.50;64.30
851;DHT22;412;51.400;7.480;2022-11-11T12:00:11;20.40;63.80
851;DHT22;412;51.400;7.480;2022-11-11T12:03:23;20.30;63.00
851;DHT22;412;51.400;7.480;2022-11-11T12:14:26;20.10;65.30
851;DHT22;412;51.400;7.480;2022-11-11T12:20:03;20.00;65.10
851;DHT22;412;51.400;7.480;2022-11-11T12:26:00;19.80;66.50
851;DHT22;412;51.400;7.480;2022-11-11T12:28:41;19.70;66.40
851;DHT22;412;51.400;7.480;2022-11-11T12:45:04;19.40;66.40
851;DHT22;412;51.400;7.480;2022-11-11T12:50:19;19.10;67.40
851;DHT22;412;51.400;7.480;2022-11-11T12:56:16;19.10;67.80
851;DHT22;412;51.400;7.480;2022-11-11T13:07:38;18.50;67.90
851;DHT22;412;51.400;7.480;2022-11-11T13:10:33;18.60;68.00
851;DHT22;412;51.400;7.480;2022-11-11T13:15:48;18.50;67.30
851;DHT22;412;51.400;7.480;2022-11-11T13:18:26;18.50;67.70
851;DHT22;412;51.400;7.480;2022-11-11T13:20:58;18.60;67.00
851;DHT22;412;51.400;7.480;2022-11-11T13:23:25;18.60;67.20
851;DHT22;412;51.400;7.480;2022-11-11T13:25:55;18.60;67.10
851;DHT22;412;51.400;7.480;2022-11-11T13:28:34;18.70;66.60
851;DHT22;412;51.400;7.480;2022-11-11T13:33:51;18.60;66.50
851;DHT22;412;51.400;7.480;2022-11-11T13:36:26;18.60;67.60
851;DHT22;412;51.400;7.480;2022-11-11T13:38:58;18.60;68.40
851;DHT22;412;51.400;7.480;2022-11-11T13:41:32;18.60;67.90
851;DHT22;412;51.400;7.480;2022-11-11T13:44:03;18.60;67.90
851;DHT22;412;51.400;7.480;2022-11-11T13:46:39;18.60;68.30
851;DHT22;412;51.400;7.480;2022-11-11T13:49:56;18.60;70.20
851;DHT22;412;51.400;7.480;2022-11-11T13:52:01;18.50;69.40
851;DHT22;412;51.400;7.480;2022-11-11T13:54:33;18.40;69.40
851;DHT22;412;51.400;7.480;2022-11-11T13:57:27;18.30;70.80
851;DHT22;412;51.400;7.480;2022-11-11T14:00:00;18.20;69.10
851;DHT22;412;51.400;7.480;2022-11-11T14:02:34;18.10;70.40
851;DHT22;412;51.400;7.480;2022-11-11T14:10:09;17.90;71.60
851;DHT22;412;51.400;7.480;2022-11-11T14:12:56;17.90;71.40
851;DHT22;412;51.400;7.480;2022-11-11T14:15:36;17.80;72.00
851;DHT22;412;51.400;7.480;2022-11-11T14:20:47;17.70;72.20
851;DHT22;412;51.400;7.480;2022-11-11T14:36:28;17.20;74.50
851;DHT22;412;51.400;7.480;2022-11-11T14:41:58;17.00;75.40
851;DHT22;412;51.400;7.480;2022-11-11T14:49:50;16.60;79.20
851;DHT22;412;51.400;7.480;2022-11-11T14:52:39;16.60;79.20
851;DHT22;412;51.400;7.480;2022-11-11T15:14:21;16.50;83.60
851;DHT22;412;51.400;7.480;2022-11-11T15:25:40;16.50;86.30
851;DHT22;412;51.400;7.480;2022-11-11T15:34:06;16.20;87.60
851;DHT22;412;51.400;7.480;2022-11-11T15:36:44;16.20;88.70
851;DHT22;412;51.400;7.480;2022-11-11T15:39:17;16.10;89.00
851;DHT22;412;51.400;7.480;2022-11-11T15:41:47;15.90;89.70
851;DHT22;412;51.400;7.480;2022-11-11T15:44:30;15.80;90.10
851;DHT22;412;51.400;7.480;2022-11-11T15:46:57;15.70;90.30
851;DHT22;412;51.400;7.480;2022-11-11T15:49:43;15.50;90.50
851;DHT22;412;51.400;7.480;2022-11-11T15:54:48;15.40;91.30
851;DHT22;412;51.400;7.480;2022-11-11T15:57:31;15.50;91.40
851;DHT22;412;51.400;7.480;2022-11-11T15:59:59;15.40;91.60
851;DHT22;412;51.400;7.480;2022-11-11T16:02:43;15.30;91.60
851;DHT22;412;51.400;7.480;2022-11-11T16:05:23;15.30;92.00
851;DHT22;412;51.400;7.480;2022-11-11T16:07:50;15.20;92.20
851;DHT22;412;51.400;7.480;2022-11-11T16:13:05;15.10;92.40
851;DHT22;412;51.400;7.480;2022-11-11T16:16:02;15.00;92.60
851;DHT22;412;51.400;7.480;2022-11-11T16:18:33;15.00;92.80
851;DHT22;412;51.400;7.480;2022-11-11T16:21:09;14.90;92.90
851;DHT22;412;51.400;7.480;2022-11-11T16:23:37;14.80;92.90
851;DHT22;412;51.400;7.480;2022-11-11T16:26:05;14.70;93.20
851;DHT22;412;51.400;7.480;2022-11-11T16:28:39;14.70;93.50
851;DHT22;412;51.400;7.480;2022-11-11T16:36:58;14.50;93.80
851;DHT22;412;51.400;7.480;2022-11-11T16:39:26;14.50;93.90
851;DHT22;412;51.400;7.480;2022-11-11T16:41:53;14.40;94.10
851;DHT22;412;51.400;7.480;2022-11-11T16:44:35;14.30;94.40
851;DHT22;412;51.400;7.480;2022-11-11T16:47:03;14.30;94.60
851;DHT22;412;51.400;7.480;2022-11-11T16:49:40;14.20;94.40
851;DHT22;412;51.400;7.480;2022-11-11T16:52:26;14.10;94.70
851;DHT22;412;51.400;7.480;2022-11-11T16:54:56;14.00;95.00
851;DHT22;412;51.400;7.480;2022-11-11T16:57:30;14.00;95.10
851;DHT22;412;51.400;7.480;2022-11-11T17:00:01;14.00;95.10
851;DHT22;412;51.400;7.480;2022-11-11T17:02:28;14.00;95.30
851;DHT22;412;51.400;7.480;2022-11-11T17:04:55;13.90;94.70
851;DHT22;412;51.400;7.480;2022-11-11T17:10:21;13.80;95.00
851;DHT22;412;51.400;7.480;2022-11-11T17:12:48;13.80;95.50
851;DHT22;412;51.400;7.480;2022-11-11T17:15:18;13.80;95.70
851;DHT22;412;51.400;7.480;2022-11-11T17:17:45;13.70;95.70
851;DHT22;412;51.400;7.480;2022-11-11T17:20:17;13.70;96.10
851;DHT22;412;51.400;7.480;2022-11-11T17:22:48;13.60;96.00
851;DHT22;412;51.400;7.480;2022-11-11T17:25:15;13.60;96.00
851;DHT22;412;51.400;7.480;2022-11-11T17:27:41;13.60;96.40
851;DHT22;412;51.400;7.480;2022-11-11T17:30:08;13.50;96.60
851;DHT22;412;51.400;7.480;2022-11-11T17:32:34;13.50;96.70
851;DHT22;412;51.400;7.480;2022-11-11T17:35:00;13.50;96.90
851;DHT22;412;51.400;7.480;2022-11-11T17:37:25;13.50;96.50
851;DHT22;412;51.400;7.480;2022-11-11T17:39:51;13.60;96.50
851;DHT22;412;51.400;7.480;2022-11-11T17:42:17;13.50;96.40
851;DHT22;412;51.400;7.480;2022-11-11T17:44:43;13.50;96.60
851;DHT22;412;51.400;7.480;2022-11-11T17:47:09;13.50;96.40
851;DHT22;412;51.400;7.480;2022-11-11T17:49:35;13.50;96.30
851;DHT22;412;51.400;7.480;2022-11-11T17:52:01;13.50;96.20
851;DHT22;412;51.400;7.480;2022-11-11T17:54:26;13.40;96.30
851;DHT22;412;51.400;7.480;2022-11-11T17:56:56;13.40;96.40
851;DHT22;412;51.400;7.480;2022-11-11T17:59:22;13.40;96.20
851;DHT22;412;51.400;7.480;2022-11-11T18:01:47;13.30;96.30
851;DHT22;412;51.400;7.480;2022-11-11T18:04:13;13.30;96.40
851;DHT22;412;51.400;7.480;2022-11-11T18:06:39;13.30;96.70
851;DHT22;412;51.400;7.480;2022-11-11T18:09:04;13.20;96.60
851;DHT22;412;51.400;7.480;2022-11-11T18:11:30;13.20;96.60
851;DHT22;412;51.400;7.480;2022-11-11T18:13:56;13.10;96.80
851;DHT22;412;51.400;7.480;2022-11-11T18:16:21;13.00;96.70
851;DHT22;412;51.400;7.480;2022-11-11T18:18:47;13.00;97.00
851;DHT22;412;51.400;7.480;2022-11-11T18:21:13;12.90;96.90
851;DHT22;412;51.400;7.480;2022-11-11T18:23:39;12.80;97.00
851;DHT22;412;51.400;7.480;2022-11-11T18:26:06;12.80;97.20
851;DHT22;412;51.400;7.480;2022-11-11T18:28:36;12.80;97.50
851;DHT22;412;51.400;7.480;2022-11-11T18:31:10;12.70;98.00
851;DHT22;412;51.400;7.480;2022-11-11T18:33:37;12.70;97.80
851;DHT22;412;51.400;7.480;2022-11-11T18:36:14;12.60;97.90
851;DHT22;412;51.400;7.480;2022-11-11T18:38:40;12.60;98.30
851;DHT22;412;51.400;7.480;2022-11-11T18:41:11;12.60;98.00
851;DHT22;412;51.400;7.480;2022-11-11T18:43:39;12.50;98.20
851;DHT22;412;51.400;7.480;2022-11-11T18:46:08;12.50;98.10
851;DHT22;412;51.400;7.480;2022-11-11T18:48:34;12.40;98.10
851;DHT22;412;51.400;7.480;2022-11-11T18:51:00;12.40;98.50
851;DHT22;412;51.400;7.480;2022-11-11T18:53:31;12.40;98.70
851;DHT22;412;51.400;7.480;2022-11-11T18:56:10;12.30;98.90
851;DHT22;412;51.400;7.480;2022-11-11T18:58:37;12.30;99.00
851;DHT22;412;51.400;7.480;2022-11-11T19:01:11;12.30;98.80
851;DHT22;412;51.400;7.480;2022-11-11T19:03:40;12.30;98.40
851;DHT22;412;51.400;7.480;2022-11-11T19:06:08;12.30;98.90
851;DHT22;412;51.400;7.480;2022-11-11T19:08:35;12.20;98.80
851;DHT22;412;51.400;7.480;2022-11-11T19:11:03;12.20;99.00
851;DHT22;412;51.400;7.480;2022-11-11T19:13:29;12.20;99.20
851;DHT22;412;51.400;7.480;2022-11-11T19:15:55;12.20;99.00
851;DHT22;412;51.400;7.480;2022-11-11T19:18:21;12.20;98.90
851;DHT22;412;51.400;7.480;2022-11-11T19:20:47;12.20;99.00
851;DHT22;412;51.400;7.480;2022-11-11T19:23:13;12.10;99.00
851;DHT22;412;51.400;7.480;2022-11-11T19:25:39;12.20;99.40
851;DHT22;412;51.400;7.480;2022-11-11T19:28:05;12.10;99.50
851;DHT22;412;51.400;7.480;2022-11-11T19:30:33;12.10;99.20
851;DHT22;412;51.400;7.480;2022-11-11T19:32:59;12.10;99.10
851;DHT22;412;51.400;7.480;2022-11-11T19:35:25;12.10;99.30
851;DHT22;412;51.400;7.480;2022-11-11T19:37:51;12.10;99.50
851;DHT22;412;51.400;7.480;2022-11-11T19:40:17;12.10;99.60
851;DHT22;412;51.400;7.480;2022-11-11T19:42:47;12.10;99.80
851;DHT22;412;51.400;7.480;2022-11-11T19:45:13;12.10;99.60
851;DHT22;412;51.400;7.480;2022-11-11T19:47:39;12.10;99.70
851;DHT22;412;51.400;7.480;2022-11-11T19:50:05;12.10;99.70
851;DHT22;412;51.400;7.480;2022-11-11T19:52:31;12.00;99.70
851;DHT22;412;51.400;7.480;2022-11-11T19:55:17;12.00;99.50
851;DHT22;412;51.400;7.480;2022-11-11T19:57:42;12.00;99.50